Felker Army Air Field
KFAF : rendu visible

Aérodrome :











RETROUVEZ-NOUS SUR...

 
LOGIN :

S'inscrire | Disclaimer

   EN    FR    IT 

 









Légende :    VFR   VFR Marginal   IFR   IFR Intensif   IFR Très Intensif
Visi : 
Plafond : 
>= 8 km
>= 3000ft
5 à 8 km
1000 à 3000 ft
1500m à 5 km
500 à 1000 ft
800 à 1500m
200 à 500 ft
< 800m
< 200 ft
Symboles :   Orages  Brouillard  Fortes neiges  Fortes précipitations  Vent > 20 kt






- Altitude de l'aérodrome : 12 ft


KFAF - Felker Army Air Field

DERNIER METAR :
  • 171856Z 36008KT 10SM SCT150 05/M11 A3064 RMK AO2A SLP379 T00501107 $

METARs EXPIRÉS :
  • 171756Z 34009G16KT 10SM FEW100 05/M10 A3065 RMK AO2A SLP382 T00461099 10047 20015 58005 $
  • 171656Z 36008G14KT 10SM SCT100 04/M10 A3066 RMK AO2A SLP386 T00391098 $

TAF TAF KFAF
Valide du 17 à 19h jusqu'au 19 à 01h UTC


171900Z 1719/1901 35010G15KT 9999 FEW150 QNH3063INS
BECMG 1722/1723 VRB06KT 9999 FEW200 QNH3067INS
BECMG 1807/1808 VRB06KT 9999 BKN150 QNH3061INS
BECMG 1818/1819 18012KT 9999 BKN020 QNH3033INS
BECMG 1822/1823 17006KT 9000 -SHRA OVC015 QNH3014INS TX08/1819Z TNM01/1803Z LAST NO AMDS AFT 1804 NEXT 2111



MET'MAP, la Météo Aéronautique d'un coup d'oeil ! - Copyright ORBIFLY Décembre 2007 - Disclaimer

ORBIFLY MET'MAP TEAM :

Programmation & Développement : Alexandra Zaïnal
Sur une idée originale de : Baudouin d'Aumeries
Assistance à la programmation : Marc-Olivier Méhu
Soutien technique & logistique : Manuel Goepfert

Contact : metmap@orbifly.com




SOURCES & CREDITS :

   NOAA       Earth
Advisory